Time;durP1;ratioP1;P1;durP2;ratioP2;P2;SDS_P1;SDS_P2;PMS_P1;PMS_P2;Temp;Humidity;BMP_temperature;BMP_pressure;BME280_temperature;BME280_humidity;BME280_pressure;Samples;Min_cycle;Max_cycle;Signal;HPM_P1;HPM_P2
2022/06/16 00:02:00;;;;;;;5.43;2.25;;;;;;;;;;4990127;28;20034;-75
2022/06/16 00:04:26;;;;;;;5.05;1.88;;;;;;;;;;4990186;28;20062;-75
2022/06/16 00:06:55;;;;;;;7.35;2.00;;;;;;;;;;4971613;28;20074;-75
2022/06/16 00:09:21;;;;;;;4.50;1.67;;;;;;;;;;4970925;28;20027;-74
2022/06/16 00:11:47;;;;;;;5.25;2.00;;;;;;;;;;4970628;28;20169;-75
2022/06/16 00:14:13;;;;;;;3.50;1.85;;;;;;;;;;4970793;28;20659;-75
2022/06/16 00:16:39;;;;;;;5.45;1.67;;;;;;;;;;4970608;28;20154;-75
2022/06/16 00:19:05;;;;;;;4.60;2.25;;;;;;;;;;4970637;28;20041;-75
2022/06/16 00:21:31;;;;;;;4.93;1.73;;;;;;;;;;4970674;28;20034;-74
2022/06/16 00:23:57;;;;;;;4.80;1.90;;;;;;;;;;4970467;28;20043;-75
2022/06/16 00:26:25;;;;;;;4.28;1.95;;;;;;;;;;5026620;28;20033;-75
2022/06/16 00:28:51;;;;;;;4.60;2.13;;;;;;;;;;5030739;28;20033;-75
2022/06/16 00:31:18;;;;;;;4.93;2.03;;;;;;;;;;5041046;28;20033;-75
2022/06/16 00:33:44;;;;;;;6.80;2.10;;;;;;;;;;5051452;28;20029;-75
2022/06/16 00:36:11;;;;;;;8.88;2.30;;;;;;;;;;5051429;28;20104;-75
2022/06/16 00:38:37;;;;;;;4.18;2.00;;;;;;;;;;5051483;28;20029;-75
2022/06/16 00:41:03;;;;;;;9.43;2.13;;;;;;;;;;5051453;28;20040;-75
2022/06/16 00:43:29;;;;;;;7.57;2.05;;;;;;;;;;5051116;28;20025;-75
2022/06/16 00:45:59;;;;;;;4.20;2.00;;;;;;;;;;5051365;28;20104;-74
2022/06/16 00:48:28;;;;;;;6.60;1.85;;;;;;;;;;5051577;28;20029;-75
2022/06/16 00:50:59;;;;;;;5.55;2.28;;;;;;;;;;5049522;28;20441;-74
2022/06/16 00:53:25;;;;;;;4.55;1.88;;;;;;;;;;5051337;28;20387;-74
2022/06/16 00:55:51;;;;;;;4.80;1.98;;;;;;;;;;5051152;28;20025;-74
2022/06/16 00:58:18;;;;;;;4.45;2.22;;;;;;;;;;5051207;28;20047;-74
2022/06/16 01:00:48;;;;;;;4.00;1.90;;;;;;;;;;5051348;28;20510;-75
2022/06/16 01:04:51;;;;;;;3.90;1.67;;;;;;;;;;5049820;28;20026;-74
2022/06/16 01:06:02;;;;;;;4.43;2.00;;;;;;;;;;5051269;28;20040;-75
2022/06/16 01:08:28;;;;;;;5.28;2.13;;;;;;;;;;5051336;28;20033;-74
2022/06/16 01:10:56;;;;;;;5.32;1.73;;;;;;;;;;5051278;28;20052;-75
2022/06/16 01:13:43;;;;;;;4.25;2.03;;;;;;;;;;5051366;28;20463;-75
2022/06/16 01:16:21;;;;;;;6.90;2.33;;;;;;;;;;5051169;28;20120;-75
2022/06/16 01:19:06;;;;;;;5.78;2.17;;;;;;;;;;5051207;28;20037;-75
2022/06/16 01:22:04;;;;;;;6.70;2.10;;;;;;;;;;5051238;28;20025;-75
2022/06/16 01:24:37;;;;;;;6.65;2.42;;;;;;;;;;4989633;28;20042;-75
2022/06/16 01:27:21;;;;;;;5.57;2.10;;;;;;;;;;4989580;28;20034;-75
2022/06/16 01:29:53;;;;;;;6.90;2.25;;;;;;;;;;4989557;28;20042;-74
2022/06/16 01:32:40;;;;;;;8.15;2.05;;;;;;;;;;4989415;28;20029;-74
2022/06/16 01:35:21;;;;;;;3.90;2.50;;;;;;;;;;4989477;28;20405;-74
2022/06/16 01:37:52;;;;;;;5.45;2.15;;;;;;;;;;4989578;28;20057;-74
2022/06/16 01:40:27;;;;;;;7.82;2.40;;;;;;;;;;4991680;28;20689;-74
2022/06/16 01:43:13;;;;;;;7.45;2.05;;;;;;;;;;4992791;28;20176;-74
2022/06/16 01:45:51;;;;;;;3.95;2.53;;;;;;;;;;4993036;28;20030;-75
2022/06/16 01:48:19;;;;;;;6.40;2.03;;;;;;;;;;4992815;28;20418;-75
2022/06/16 01:50:59;;;;;;;4.55;2.35;;;;;;;;;;4992515;28;20149;-74
2022/06/16 01:53:40;;;;;;;5.35;2.58;;;;;;;;;;4992689;28;20207;-74
2022/06/16 01:56:10;;;;;;;7.25;2.42;;;;;;;;;;4991956;28;20054;-75
2022/06/16 01:58:37;;;;;;;3.97;2.10;;;;;;;;;;4992597;28;20034;-74
2022/06/16 02:01:07;;;;;;;3.70;2.15;;;;;;;;;;5047701;28;20376;-74
2022/06/16 02:03:36;;;;;;;4.60;2.60;;;;;;;;;;5054249;28;20396;-74
2022/06/16 02:06:06;;;;;;;6.07;2.75;;;;;;;;;;5041596;28;20032;-74
2022/06/16 02:08:35;;;;;;;12.88;2.58;;;;;;;;;;5034169;28;20046;-74
2022/06/16 02:11:08;;;;;;;5.35;2.33;;;;;;;;;;5034110;28;20029;-75
2022/06/16 02:13:38;;;;;;;5.85;2.50;;;;;;;;;;5034104;28;20029;-74
2022/06/16 02:16:10;;;;;;;5.25;2.80;;;;;;;;;;5033931;28;20029;-74
2022/06/16 02:18:36;;;;;;;;;;;;;;;;;;5034481;28;20487;-75
2022/06/16 02:21:09;;;;;;;9.55;2.58;;;;;;;;;;5033950;28;19959;-75
2022/06/16 02:23:36;;;;;;;5.50;2.30;;;;;;;;;;5033850;28;20033;-74
2022/06/16 02:26:02;;;;;;;7.10;2.92;;;;;;;;;;5033746;28;20057;-75
2022/06/16 02:28:28;;;;;;;6.50;3.00;;;;;;;;;;5033791;28;20041;-75
2022/06/16 02:30:54;;;;;;;6.53;2.83;;;;;;;;;;5036101;28;20029;-74
2022/06/16 02:33:20;;;;;;;4.70;2.72;;;;;;;;;;5052317;28;20056;-74
2022/06/16 02:35:58;;;;;;;10.18;3.00;;;;;;;;;;5053585;28;20090;-75
2022/06/16 02:38:36;;;;;;;9.93;4.07;;;;;;;;;;5053609;28;20363;-75
2022/06/16 02:41:05;;;;;;;6.72;2.90;;;;;;;;;;5053439;28;20028;-74
2022/06/16 02:44:04;;;;;;;3.08;2.47;;;;;;;;;;5053430;28;20037;-74
2022/06/16 02:46:36;;;;;;;13.73;3.20;;;;;;;;;;5011254;28;20096;-74
2022/06/16 02:49:04;;;;;;;13.30;3.33;;;;;;;;;;5011330;28;20038;-74
2022/06/16 02:51:49;;;;;;;8.88;3.20;;;;;;;;;;5010142;28;20054;-74
2022/06/16 02:54:24;;;;;;;8.45;3.25;;;;;;;;;;5011085;28;20049;-74
2022/06/16 02:57:01;;;;;;;5.38;2.75;;;;;;;;;;5011205;28;20046;-74
2022/06/16 02:59:35;;;;;;;4.57;2.83;;;;;;;;;;5011127;28;20050;-74
2022/06/16 03:02:03;;;;;;;8.52;3.13;;;;;;;;;;5010889;28;20041;-74
2022/06/16 03:04:37;;;;;;;5.93;3.20;;;;;;;;;;5010843;28;20072;-74
2022/06/16 03:07:03;;;;;;;7.65;3.10;;;;;;;;;;5011087;28;20033;-74
2022/06/16 03:09:29;;;;;;;7.05;3.58;;;;;;;;;;5011005;28;20411;-74
2022/06/16 03:11:55;;;;;;;10.88;4.03;;;;;;;;;;5011011;28;20026;-74
2022/06/16 03:14:21;;;;;;;5.53;3.13;;;;;;;;;;5010801;28;20807;-74
2022/06/16 03:16:47;;;;;;;7.95;3.90;;;;;;;;;;5010719;28;20428;-74
2022/06/16 03:19:13;;;;;;;7.70;3.80;;;;;;;;;;5010751;28;20563;-74
2022/06/16 03:21:39;;;;;;;5.80;3.10;;;;;;;;;;5018082;28;20373;-74
2022/06/16 03:24:06;;;;;;;6.35;3.70;;;;;;;;;;5032780;28;20033;-74
2022/06/16 03:26:32;;;;;;;7.70;3.80;;;;;;;;;;5032541;28;20030;-74
2022/06/16 03:28:58;;;;;;;8.55;3.67;;;;;;;;;;5032635;28;20032;-74
2022/06/16 03:31:24;;;;;;;12.05;4.72;;;;;;;;;;5038880;28;20025;-74
2022/06/16 03:33:50;;;;;;;13.48;4.22;;;;;;;;;;5052442;28;20104;-74
2022/06/16 03:36:16;;;;;;;9.52;4.25;;;;;;;;;;5052398;28;20419;-74
2022/06/16 03:38:42;;;;;;;8.77;3.50;;;;;;;;;;5052344;28;20035;-74
2022/06/16 03:41:08;;;;;;;11.95;4.85;;;;;;;;;;5052186;28;20033;-74
2022/06/16 03:43:34;;;;;;;13.15;4.32;;;;;;;;;;5052185;28;20119;-74
2022/06/16 03:46:00;;;;;;;9.32;4.22;;;;;;;;;;5052227;28;20087;-74
2022/06/16 03:48:26;;;;;;;9.95;4.30;;;;;;;;;;5052313;28;20025;-74
2022/06/16 03:50:52;;;;;;;11.02;4.50;;;;;;;;;;5051937;28;20065;-74
2022/06/16 03:53:18;;;;;;;7.72;4.72;;;;;;;;;;5052134;28;20455;-75
2022/06/16 03:55:44;;;;;;;8.93;4.18;;;;;;;;;;5052067;28;20526;-74
2022/06/16 03:58:11;;;;;;;6.90;4.10;;;;;;;;;;5052030;28;20057;-74
2022/06/16 04:00:37;;;;;;;7.18;4.25;;;;;;;;;;5051966;28;20033;-75
2022/06/16 04:05:48;;;;;;;7.00;3.80;;;;;;;;;;5041514;28;20232;-74
2022/06/16 04:08:16;;;;;;;10.57;4.30;;;;;;;;;;5032132;28;20095;-74
2022/06/16 04:10:42;;;;;;;11.50;4.20;;;;;;;;;;5032059;28;20025;-74
2022/06/16 04:13:09;;;;;;;8.85;5.20;;;;;;;;;;5031936;28;20037;-74
2022/06/16 04:15:35;;;;;;;10.05;4.65;;;;;;;;;;5031968;28;20033;-75
2022/06/16 04:18:01;;;;;;;11.60;4.45;;;;;;;;;;5031729;28;20037;-75
2022/06/16 04:20:27;;;;;;;10.02;3.97;;;;;;;;;;5030461;28;20099;-74
2022/06/16 04:22:54;;;;;;;9.23;4.40;;;;;;;;;;5031891;28;20025;-75
2022/06/16 04:25:21;;;;;;;10.60;4.85;;;;;;;;;;5030320;28;20057;-75
2022/06/16 04:27:47;;;;;;;10.02;4.18;;;;;;;;;;5031793;28;20036;-74
2022/06/16 04:30:14;;;;;;;9.18;4.60;;;;;;;;;;5032545;28;20018;-74
2022/06/16 04:32:40;;;;;;;12.95;4.80;;;;;;;;;;5051409;28;20025;-74
2022/06/16 04:35:07;;;;;;;11.80;4.72;;;;;;;;;;5051568;28;20048;-75
2022/06/16 04:37:33;;;;;;;8.13;4.18;;;;;;;;;;5051572;28;20052;-74
2022/06/16 04:39:59;;;;;;;5.85;3.63;;;;;;;;;;5051397;28;20029;-75
2022/06/16 04:42:26;;;;;;;8.98;4.45;;;;;;;;;;5051372;28;20408;-75
2022/06/16 04:44:52;;;;;;;7.93;4.15;;;;;;;;;;5051455;28;20072;-74
2022/06/16 04:47:18;;;;;;;7.93;3.45;;;;;;;;;;5051324;28;20029;-74
2022/06/16 04:49:48;;;;;;;9.07;3.90;;;;;;;;;;5051437;28;20025;-74
2022/06/16 04:52:15;;;;;;;8.27;3.75;;;;;;;;;;5051249;28;20521;-74
2022/06/16 04:54:43;;;;;;;10.40;4.45;;;;;;;;;;5051417;28;20029;-75
2022/06/16 04:57:09;;;;;;;10.05;3.90;;;;;;;;;;5051094;28;20025;-75
2022/06/16 04:59:37;;;;;;;9.55;3.90;;;;;;;;;;5051435;28;20032;-74
2022/06/16 05:02:03;;;;;;;8.38;3.55;;;;;;;;;;5051120;28;20060;-74
2022/06/16 05:04:29;;;;;;;6.28;3.33;;;;;;;;;;5051454;28;20037;-74
2022/06/16 05:06:56;;;;;;;5.95;3.50;;;;;;;;;;5031458;28;20096;-75
2022/06/16 05:09:23;;;;;;;9.80;3.35;;;;;;;;;;5031333;28;20025;-75
2022/06/16 05:11:49;;;;;;;7.97;3.92;;;;;;;;;;5031315;28;20030;-75
2022/06/16 05:14:15;;;;;;;10.75;3.55;;;;;;;;;;5032009;28;20034;-75
2022/06/16 05:16:41;;;;;;;10.90;3.70;;;;;;;;;;5034960;28;20030;-74
2022/06/16 05:19:07;;;;;;;7.35;3.63;;;;;;;;;;5035092;28;20167;-74
2022/06/16 05:21:33;;;;;;;12.80;4.22;;;;;;;;;;5035118;28;20029;-74
2022/06/16 05:23:59;;;;;;;8.30;4.15;;;;;;;;;;5034840;28;20029;-74
2022/06/16 05:26:25;;;;;;;10.05;4.10;;;;;;;;;;5035064;28;20025;-74
2022/06/16 05:28:51;;;;;;;10.70;4.00;;;;;;;;;;5034887;28;20056;-74
2022/06/16 05:31:17;;;;;;;8.32;3.28;;;;;;;;;;5040349;28;20063;-74
2022/06/16 05:33:44;;;;;;;10.52;3.95;;;;;;;;;;5054808;28;20025;-74
2022/06/16 05:36:13;;;;;;;8.93;3.60;;;;;;;;;;5054758;28;20021;-75
2022/06/16 05:38:40;;;;;;;6.18;3.55;;;;;;;;;;5054694;28;20025;-75
2022/06/16 05:41:10;;;;;;;11.77;3.35;;;;;;;;;;5054659;28;20029;-75
2022/06/16 05:43:36;;;;;;;6.78;3.03;;;;;;;;;;5054614;28;20055;-75
2022/06/16 05:46:02;;;;;;;6.88;2.80;;;;;;;;;;5054556;28;20123;-75
2022/06/16 05:48:28;;;;;;;10.35;3.35;;;;;;;;;;5054603;28;20021;-75
2022/06/16 05:50:55;;;;;;;6.97;2.88;;;;;;;;;;5054367;28;20531;-75
2022/06/16 05:53:21;;;;;;;5.68;2.63;;;;;;;;;;5054506;28;20444;-75
2022/06/16 05:55:48;;;;;;;4.38;2.42;;;;;;;;;;5054364;28;20040;-75
2022/06/16 05:58:15;;;;;;;7.75;2.42;;;;;;;;;;5054298;28;20087;-75
2022/06/16 06:00:41;;;;;;;7.90;2.60;;;;;;;;;;5054122;28;20070;-75
2022/06/16 06:03:07;;;;;;;7.97;2.45;;;;;;;;;;5054075;28;20037;-75
2022/06/16 06:05:33;;;;;;;8.25;2.53;;;;;;;;;;5045608;28;20025;-75
2022/06/16 06:16:28;;;;;;;6.10;2.25;;;;;;;;;;5034441;28;20498;-75
2022/06/16 06:18:54;;;;;;;3.25;1.73;;;;;;;;;;5033905;28;20032;-75
2022/06/16 06:21:58;;;;;;;3.78;1.75;;;;;;;;;;5033930;28;20029;-74
2022/06/16 06:24:06;;;;;;;2.40;1.45;;;;;;;;;;5033704;28;20615;-75
2022/06/16 06:26:33;;;;;;;5.53;2.10;;;;;;;;;;5032368;28;20464;-75
2022/06/16 06:28:59;;;;;;;6.15;2.10;;;;;;;;;;5033768;28;20021;-75
2022/06/16 06:31:25;;;;;;;6.15;1.50;;;;;;;;;;5044341;28;20115;-75
2022/06/16 06:33:51;;;;;;;4.90;1.83;;;;;;;;;;5053676;28;20099;-75
2022/06/16 06:36:17;;;;;;;2.85;1.60;;;;;;;;;;5053822;28;20052;-75
2022/06/16 06:38:43;;;;;;;4.60;1.90;;;;;;;;;;5053579;28;20048;-75
2022/06/16 06:41:09;;;;;;;3.55;1.42;;;;;;;;;;5053534;28;20471;-75
2022/06/16 06:43:35;;;;;;;4.68;1.80;;;;;;;;;;5053309;28;20139;-75
2022/06/16 06:46:01;;;;;;;9.95;2.80;;;;;;;;;;5053326;28;20458;-75
2022/06/16 06:48:27;;;;;;;7.28;3.10;;;;;;;;;;5053377;28;20048;-75
2022/06/16 06:50:53;;;;;;;4.43;1.77;;;;;;;;;;5053289;28;20052;-75
2022/06/16 06:53:19;;;;;;;4.57;1.80;;;;;;;;;;5053388;28;20129;-75
2022/06/16 06:55:46;;;;;;;4.93;1.60;;;;;;;;;;5053294;28;20036;-75
2022/06/16 06:58:20;;;;;;;9.35;1.95;;;;;;;;;;5053187;28;20096;-75
2022/06/16 07:00:46;;;;;;;5.45;1.50;;;;;;;;;;5053131;28;20028;-75
2022/06/16 07:03:12;;;;;;;3.28;1.55;;;;;;;;;;5053084;28;20044;-75
2022/06/16 07:05:38;;;;;;;3.25;1.42;;;;;;;;;;5043921;28;20028;-75
2022/06/16 07:08:05;;;;;;;5.45;1.48;;;;;;;;;;5033330;28;20752;-74
2022/06/16 07:10:32;;;;;;;6.13;1.52;;;;;;;;;;5033177;28;20100;-75
2022/06/16 07:12:58;;;;;;;3.60;1.20;;;;;;;;;;5033121;28;20037;-75
2022/06/16 07:15:24;;;;;;;5.25;1.35;;;;;;;;;;5033003;28;20476;-75
2022/06/16 07:17:50;;;;;;;3.88;1.23;;;;;;;;;;5032933;28;20388;-75
2022/06/16 07:20:16;;;;;;;4.90;0.93;;;;;;;;;;5032969;28;20037;-75
2022/06/16 07:22:43;;;;;;;2.22;0.80;;;;;;;;;;5032915;28;20026;-74
2022/06/16 07:25:10;;;;;;;3.10;0.80;;;;;;;;;;5032808;28;20379;-75
2022/06/16 07:27:36;;;;;;;2.85;1.00;;;;;;;;;;5032745;28;20033;-74
2022/06/16 07:30:02;;;;;;;4.25;0.77;;;;;;;;;;5032726;28;20024;-75
2022/06/16 07:32:28;;;;;;;3.88;0.93;;;;;;;;;;5051980;28;20048;-75
2022/06/16 07:34:54;;;;;;;4.15;0.80;;;;;;;;;;5052479;28;20043;-75
2022/06/16 07:37:20;;;;;;;2.05;0.82;;;;;;;;;;5052200;28;20025;-75
2022/06/16 07:39:46;;;;;;;4.40;1.17;;;;;;;;;;5052479;28;20029;-75
2022/06/16 07:42:12;;;;;;;4.05;0.90;;;;;;;;;;5052412;28;20410;-75
2022/06/16 07:44:39;;;;;;;6.10;0.82;;;;;;;;;;5052208;28;20117;-75
2022/06/16 07:47:05;;;;;;;1.55;0.80;;;;;;;;;;5052351;28;20025;-75
2022/06/16 07:49:32;;;;;;;3.78;0.80;;;;;;;;;;5052241;28;20017;-75
2022/06/16 07:51:58;;;;;;;3.90;1.35;;;;;;;;;;5052137;28;20120;-75
2022/06/16 07:54:25;;;;;;;5.18;0.95;;;;;;;;;;5052317;28;20079;-75
2022/06/16 07:56:51;;;;;;;3.58;0.90;;;;;;;;;;5052262;28;20032;-75
2022/06/16 07:59:17;;;;;;;2.00;0.80;;;;;;;;;;5052096;28;20562;-75
2022/06/16 08:01:43;;;;;;;3.13;1.00;;;;;;;;;;5052072;28;20052;-75
2022/06/16 08:04:09;;;;;;;4.40;1.20;;;;;;;;;;5052114;28;20404;-75
2022/06/16 08:06:36;;;;;;;2.45;0.82;;;;;;;;;;5047351;28;20034;-75
2022/06/16 08:09:03;;;;;;;3.28;1.10;;;;;;;;;;5032205;28;20036;-74
2022/06/16 08:14:14;;;;;;;2.25;0.93;;;;;;;;;;5032136;28;20036;-74
2022/06/16 08:16:40;;;;;;;2.85;1.00;;;;;;;;;;5031983;28;20038;-74
2022/06/16 08:19:06;;;;;;;5.20;1.73;;;;;;;;;;5032032;28;20033;-74
2022/06/16 08:21:33;;;;;;;2.92;1.00;;;;;;;;;;5032040;28;20484;-74
2022/06/16 08:23:59;;;;;;;6.93;1.30;;;;;;;;;;5031916;28;20064;-74
2022/06/16 08:26:25;;;;;;;3.50;1.00;;;;;;;;;;5031953;28;20107;-74
2022/06/16 08:28:52;;;;;;;4.30;0.98;;;;;;;;;;5031861;28;20049;-74
2022/06/16 08:31:20;;;;;;;6.55;1.05;;;;;;;;;;5041467;28;20017;-74
2022/06/16 08:33:46;;;;;;;5.38;1.25;;;;;;;;;;5051795;28;20025;-74
2022/06/16 08:36:12;;;;;;;2.78;1.38;;;;;;;;;;5051853;28;20463;-74
2022/06/16 08:38:38;;;;;;;2.25;1.00;;;;;;;;;;5051707;28;20032;-74
2022/06/16 08:41:12;;;;;;;2.85;1.13;;;;;;;;;;5051675;28;20391;-74
2022/06/16 08:43:44;;;;;;;3.67;1.17;;;;;;;;;;5051565;28;20025;-74
2022/06/16 08:46:15;;;;;;;2.80;0.90;;;;;;;;;;5051843;28;20021;-74
2022/06/16 08:49:03;;;;;;;5.70;1.10;;;;;;;;;;5051609;28;20025;-75
2022/06/16 08:51:39;;;;;;;2.70;1.20;;;;;;;;;;5055603;28;20046;-74
2022/06/16 08:54:23;;;;;;;3.30;1.27;;;;;;;;;;5055616;28;20036;-74
2022/06/16 08:57:10;;;;;;;3.75;1.23;;;;;;;;;;5055556;28;20025;-74
2022/06/16 08:59:41;;;;;;;2.83;1.38;;;;;;;;;;5055509;28;20090;-74
2022/06/16 09:02:26;;;;;;;3.13;1.30;;;;;;;;;;5055431;28;20824;-74
2022/06/16 09:04:57;;;;;;;4.80;1.30;;;;;;;;;;5055676;28;20045;-74
2022/06/16 09:07:32;;;;;;;4.45;1.10;;;;;;;;;;5055535;28;20443;-74
2022/06/16 09:10:14;;;;;;;2.80;1.20;;;;;;;;;;5055335;28;20029;-74
2022/06/16 09:12:46;;;;;;;2.65;1.30;;;;;;;;;;5055381;28;20025;-74
2022/06/16 09:15:20;;;;;;;2.80;0.98;;;;;;;;;;5055365;28;20050;-74
2022/06/16 09:17:49;;;;;;;3.53;1.10;;;;;;;;;;5055111;28;20623;-74
2022/06/16 09:20:21;;;;;;;6.20;1.13;;;;;;;;;;5055180;28;20017;-74
2022/06/16 09:23:06;;;;;;;3.33;1.30;;;;;;;;;;5055153;28;20029;-74
2022/06/16 09:25:51;;;;;;;3.13;1.42;;;;;;;;;;5055125;28;20379;-75
2022/06/16 09:28:20;;;;;;;4.25;1.20;;;;;;;;;;5055180;28;20116;-74
2022/06/16 09:30:48;;;;;;;6.97;1.25;;;;;;;;;;5051182;28;20030;-73
2022/06/16 09:33:19;;;;;;;2.83;1.10;;;;;;;;;;5055388;28;20033;-74
2022/06/16 09:35:51;;;;;;;4.47;1.60;;;;;;;;;;5054006;28;20441;-75
2022/06/16 09:38:21;;;;;;;4.38;1.58;;;;;;;;;;5055332;28;20029;-74
2022/06/16 09:40:50;;;;;;;5.35;1.20;;;;;;;;;;5055100;28;20044;-74
2022/06/16 09:43:28;;;;;;;5.97;2.13;;;;;;;;;;5054994;28;20057;-74
2022/06/16 09:45:57;;;;;;;4.45;1.70;;;;;;;;;;5054681;28;20096;-74
2022/06/16 09:48:39;;;;;;;6.22;1.90;;;;;;;;;;5054531;28;20013;-74
2022/06/16 09:51:08;;;;;;;5.18;1.55;;;;;;;;;;5054197;28;20095;-74
2022/06/16 09:53:40;;;;;;;8.38;1.70;;;;;;;;;;5053338;28;20440;-74
2022/06/16 09:56:09;;;;;;;3.55;1.33;;;;;;;;;;5053341;28;20109;-75
2022/06/16 09:58:43;;;;;;;3.72;1.38;;;;;;;;;;5053365;28;20075;-74
2022/06/16 10:01:11;;;;;;;6.80;1.50;;;;;;;;;;5052657;28;20064;-74
2022/06/16 10:03:43;;;;;;;6.22;1.45;;;;;;;;;;5053183;28;20064;-74
2022/06/16 10:06:28;;;;;;;2.80;1.38;;;;;;;;;;5053054;28;20112;-74
2022/06/16 10:09:03;;;;;;;4.57;1.50;;;;;;;;;;5053073;28;20029;-75
2022/06/16 10:11:29;;;;;;;9.68;1.30;;;;;;;;;;5053009;28;20106;-74
2022/06/16 10:14:14;;;;;;;5.85;1.80;;;;;;;;;;5052988;28;20471;-74
2022/06/16 10:16:47;;;;;;;6.70;2.33;;;;;;;;;;5052949;28;20045;-74
2022/06/16 10:19:13;;;;;;;6.72;1.35;;;;;;;;;;5052939;28;20033;-75
2022/06/16 10:21:39;;;;;;;3.08;1.40;;;;;;;;;;5052920;28;20091;-74
2022/06/16 10:24:06;;;;;;;6.72;1.33;;;;;;;;;;5052823;28;20036;-74
2022/06/16 10:26:32;;;;;;;2.85;1.27;;;;;;;;;;5052753;28;20025;-74
2022/06/16 10:29:05;;;;;;;6.25;1.52;;;;;;;;;;5052768;28;20382;-74
2022/06/16 10:31:36;;;;;;;6.68;1.60;;;;;;;;;;5052561;28;20470;-74
2022/06/16 10:34:02;;;;;;;4.60;1.40;;;;;;;;;;5052732;28;20029;-74
2022/06/16 10:36:30;;;;;;;5.60;1.50;;;;;;;;;;5052808;28;20025;-74
2022/06/16 10:39:07;;;;;;;3.60;1.60;;;;;;;;;;5052652;28;20029;-74
2022/06/16 10:41:40;;;;;;;3.92;1.58;;;;;;;;;;5052619;28;20040;-74
2022/06/16 10:44:10;;;;;;;6.82;1.55;;;;;;;;;;5052537;28;20025;-75
2022/06/16 10:46:37;;;;;;;2.88;1.48;;;;;;;;;;5052457;28;20013;-74
2022/06/16 10:49:06;;;;;;;4.75;1.45;;;;;;;;;;5052589;28;20333;-74
2022/06/16 10:51:34;;;;;;;6.53;1.60;;;;;;;;;;5011162;28;1196158;-74
2022/06/16 10:54:00;;;;;;;3.60;1.50;;;;;;;;;;5053306;28;20514;-74
2022/06/16 10:56:27;;;;;;;4.13;1.48;;;;;;;;;;5053408;28;20064;-74
2022/06/16 10:59:02;;;;;;;2.47;1.40;;;;;;;;;;5053338;28;20024;-75
2022/06/16 11:01:33;;;;;;;3.97;1.45;;;;;;;;;;5053159;28;20423;-75
2022/06/16 11:04:05;;;;;;;6.32;2.10;;;;;;;;;;5053100;28;20033;-75
2022/06/16 11:06:31;;;;;;;7.00;2.38;;;;;;;;;;5053095;28;20108;-75
2022/06/16 11:09:02;;;;;;;5.32;1.55;;;;;;;;;;5053149;28;20119;-75
2022/06/16 11:11:52;;;;;;;6.50;1.85;;;;;;;;;;5052649;28;20029;-75
2022/06/16 11:14:20;;;;;;;4.95;1.83;;;;;;;;;;5053057;28;20099;-75
2022/06/16 11:16:49;;;;;;;3.10;1.80;;;;;;;;;;5052999;28;20039;-74
2022/06/16 11:19:18;;;;;;;2.50;1.40;;;;;;;;;;5052921;28;20029;-74
2022/06/16 11:21:45;;;;;;;4.97;1.50;;;;;;;;;;5052865;28;20029;-74
2022/06/16 11:24:22;;;;;;;4.85;1.80;;;;;;;;;;5052670;28;20025;-74
2022/06/16 11:26:52;;;;;;;4.93;1.25;;;;;;;;;;5052702;28;20083;-74
2022/06/16 11:29:23;;;;;;;7.13;2.00;;;;;;;;;;5052738;28;20100;-74
2022/06/16 11:32:01;;;;;;;6.93;1.40;;;;;;;;;;5048220;28;20079;-74
2022/06/16 11:34:28;;;;;;;5.13;1.65;;;;;;;;;;5052618;28;20029;-74
2022/06/16 11:36:54;;;;;;;5.55;1.83;;;;;;;;;;5052664;28;20017;-75
2022/06/16 11:39:31;;;;;;;5.25;1.33;;;;;;;;;;5052362;28;20021;-75
2022/06/16 11:41:59;;;;;;;12.50;2.13;;;;;;;;;;5052326;28;20025;-75
2022/06/16 11:44:25;;;;;;;3.55;1.58;;;;;;;;;;5052346;28;20028;-75
2022/06/16 11:47:10;;;;;;;6.30;1.77;;;;;;;;;;5052426;28;20024;-75
2022/06/16 11:49:45;;;;;;;4.22;1.30;;;;;;;;;;5052398;28;20095;-75
2022/06/16 11:52:30;;;;;;;7.63;1.80;;;;;;;;;;5052095;28;20426;-75
2022/06/16 11:55:15;;;;;;;5.65;1.60;;;;;;;;;;5052356;28;20037;-75
2022/06/16 11:57:50;;;;;;;3.58;1.40;;;;;;;;;;5052159;28;20028;-75
2022/06/16 12:00:19;;;;;;;4.30;1.40;;;;;;;;;;5052263;28;20324;-75
2022/06/16 12:03:04;;;;;;;3.58;1.35;;;;;;;;;;5052020;28;20021;-75
2022/06/16 12:05:33;;;;;;;4.55;1.60;;;;;;;;;;5051963;28;20115;-75
2022/06/16 12:08:05;;;;;;;4.47;1.70;;;;;;;;;;5052133;28;20068;-75
2022/06/16 12:10:31;;;;;;;3.38;1.70;;;;;;;;;;5052018;28;20021;-75
2022/06/16 12:13:20;;;;;;;3.22;1.67;;;;;;;;;;5051671;28;20032;-75
2022/06/16 12:15:53;;;;;;;2.88;1.50;;;;;;;;;;5051956;28;20037;-74
2022/06/16 12:18:38;;;;;;;4.85;1.55;;;;;;;;;;5051956;28;20029;-74
2022/06/16 12:21:13;;;;;;;5.65;1.48;;;;;;;;;;5051979;28;20050;-74
2022/06/16 12:23:52;;;;;;;2.85;1.60;;;;;;;;;;5051713;28;20146;-75
2022/06/16 12:26:25;;;;;;;5.35;1.80;;;;;;;;;;5051828;28;20029;-75
2022/06/16 12:29:00;;;;;;;3.95;1.58;;;;;;;;;;5051812;28;20505;-75
2022/06/16 12:31:30;;;;;;;2.95;1.38;;;;;;;;;;5047289;28;20480;-74
2022/06/16 12:33:59;;;;;;;3.83;1.70;;;;;;;;;;5050340;28;20083;-74
2022/06/16 12:36:35;;;;;;;4.97;1.60;;;;;;;;;;5051785;28;20052;-75
2022/06/16 12:39:05;;;;;;;6.30;2.13;;;;;;;;;;5051560;28;20083;-74
2022/06/16 12:41:34;;;;;;;3.67;1.85;;;;;;;;;;5051614;28;20520;-74
2022/06/16 12:44:10;;;;;;;4.82;1.90;;;;;;;;;;5051577;28;20098;-74
2022/06/16 12:46:51;;;;;;;3.58;1.67;;;;;;;;;;5051675;28;20025;-74
2022/06/16 12:49:24;;;;;;;3.15;1.55;;;;;;;;;;5051535;28;20033;-75
2022/06/16 12:51:53;;;;;;;6.55;2.03;;;;;;;;;;5051385;28;20053;-75
2022/06/16 12:54:25;;;;;;;4.88;1.90;;;;;;;;;;5051528;28;20061;-75
2022/06/16 12:57:01;;;;;;;5.85;1.80;;;;;;;;;;5051538;28;20036;-75
2022/06/16 12:59:27;;;;;;;4.50;1.80;;;;;;;;;;5051536;28;20051;-74
2022/06/16 13:01:58;;;;;;;11.18;1.80;;;;;;;;;;5051273;28;20510;-75
2022/06/16 13:04:25;;;;;;;5.78;1.75;;;;;;;;;;5051685;28;20281;-75
2022/06/16 13:06:52;;;;;;;3.67;1.50;;;;;;;;;;5051331;28;20467;-75
2022/06/16 13:09:18;;;;;;;2.80;1.45;;;;;;;;;;5051390;28;20021;-75
2022/06/16 13:11:53;;;;;;;6.05;1.58;;;;;;;;;;5051450;28;20467;-75
2022/06/16 13:14:26;;;;;;;2.33;1.40;;;;;;;;;;5051397;28;20479;-75
2022/06/16 13:16:53;;;;;;;6.13;1.45;;;;;;;;;;5051441;28;20033;-75
2022/06/16 13:19:21;;;;;;;3.50;1.48;;;;;;;;;;5051260;28;20029;-75
2022/06/16 13:21:55;;;;;;;8.30;1.85;;;;;;;;;;5051341;28;20103;-75
2022/06/16 13:24:36;;;;;;;10.82;1.67;;;;;;;;;;5051232;28;20075;-75
2022/06/16 13:27:09;;;;;;;5.35;1.60;;;;;;;;;;5051143;28;20032;-75
2022/06/16 13:29:51;;;;;;;8.07;1.80;;;;;;;;;;5051276;28;20464;-75
2022/06/16 13:32:33;;;;;;;5.32;1.60;;;;;;;;;;5051027;28;20033;-75
2022/06/16 13:34:59;;;;;;;;;;;;;;;;;;5051903;28;20425;-75
2022/06/16 13:37:26;;;;;;;4.90;2.08;;;;;;;;;;5054970;28;19905;-75
2022/06/16 13:39:53;;;;;;;2.28;1.30;;;;;;;;;;5054855;28;20082;-75
2022/06/16 13:42:40;;;;;;;5.13;1.67;;;;;;;;;;5054777;28;20036;-75
2022/06/16 13:45:12;;;;;;;2.45;1.45;;;;;;;;;;5054756;28;20029;-75
2022/06/16 13:47:38;;;;;;;;;;;;;;;;;;5055019;28;20436;-75
2022/06/16 13:50:05;;;;;;;3.45;1.45;;;;;;;;;;5054741;28;20607;-76
2022/06/16 13:52:33;;;;;;;3.28;1.40;;;;;;;;;;5054498;28;20045;-75
2022/06/16 13:55:13;;;;;;;3.13;1.52;;;;;;;;;;5054494;28;20486;-75
2022/06/16 13:57:39;;;;;;;5.22;1.65;;;;;;;;;;5054449;28;20037;-75
2022/06/16 14:00:09;;;;;;;5.18;1.60;;;;;;;;;;5054391;28;20100;-75
2022/06/16 14:02:54;;;;;;;7.38;1.65;;;;;;;;;;5054219;28;20033;-75
2022/06/16 14:05:25;;;;;;;5.70;1.60;;;;;;;;;;5047668;28;20044;-75
2022/06/16 14:07:51;;;;;;;4.82;2.00;;;;;;;;;;5034377;28;20036;-75
2022/06/16 14:10:19;;;;;;;5.55;1.60;;;;;;;;;;5034404;28;20029;-75
2022/06/16 14:12:45;;;;;;;2.28;1.45;;;;;;;;;;5034156;28;20036;-75
2022/06/16 14:15:13;;;;;;;4.88;1.50;;;;;;;;;;5034164;28;20022;-75
2022/06/16 14:17:59;;;;;;;3.88;1.58;;;;;;;;;;5032785;28;20028;-75
2022/06/16 14:20:27;;;;;;;4.47;1.52;;;;;;;;;;5033960;28;20119;-75
2022/06/16 14:22:58;;;;;;;7.60;1.85;;;;;;;;;;5033931;28;20043;-75
2022/06/16 14:25:30;;;;;;;5.22;1.58;;;;;;;;;;5033958;28;20025;-75
2022/06/16 14:27:56;;;;;;;;;;;;;;;;;;5034393;28;20480;-75
2022/06/16 14:30:32;;;;;;;7.43;1.50;;;;;;;;;;5033843;28;19951;-75
2022/06/16 14:33:00;;;;;;;5.15;1.55;;;;;;;;;;5053068;28;20057;-75
2022/06/16 14:35:26;;;;;;;5.57;1.70;;;;;;;;;;5053766;28;20100;-75
2022/06/16 14:38:03;;;;;;;3.95;1.20;;;;;;;;;;5053855;28;20074;-75
2022/06/16 14:40:39;;;;;;;6.60;1.65;;;;;;;;;;5053738;28;20028;-76
2022/06/16 14:43:11;;;;;;;4.15;1.40;;;;;;;;;;5053455;28;20483;-75
2022/06/16 14:45:45;;;;;;;2.55;1.20;;;;;;;;;;5053666;28;20112;-76
2022/06/16 14:48:31;;;;;;;4.82;1.42;;;;;;;;;;5052228;28;20071;-76
2022/06/16 14:51:01;;;;;;;2.47;1.02;;;;;;;;;;5053427;28;20033;-73
2022/06/16 14:53:32;;;;;;;3.35;1.40;;;;;;;;;;5053478;28;20021;-73
2022/06/16 14:56:10;;;;;;;7.75;1.20;;;;;;;;;;5053299;28;20031;-74
2022/06/16 14:58:46;;;;;;;7.22;1.33;;;;;;;;;;5053413;28;20029;-74
2022/06/16 15:01:13;;;;;;;6.18;1.20;;;;;;;;;;5053214;28;20021;-74
2022/06/16 15:03:42;;;;;;;4.38;1.30;;;;;;;;;;5053288;28;20044;-74
2022/06/16 15:06:09;;;;;;;6.38;1.52;;;;;;;;;;5040114;28;20029;-74
2022/06/16 15:08:35;;;;;;;4.25;1.60;;;;;;;;;;5033273;28;20155;-74
2022/06/16 15:11:03;;;;;;;3.60;1.60;;;;;;;;;;5033191;28;20029;-74
2022/06/16 15:13:31;;;;;;;3.63;1.45;;;;;;;;;;5033058;28;20134;-74
2022/06/16 15:16:08;;;;;;;2.42;1.45;;;;;;;;;;5033106;28;20100;-74